Time;durP1;ratioP1;P1;durP2;ratioP2;P2;SDS_P1;SDS_P2;PMS_P1;PMS_P2;Temp;Humidity;BMP_temperature;BMP_pressure;BME280_temperature;BME280_humidity;BME280_pressure;Samples;Min_cycle;Max_cycle;Signal;HPM_P1;HPM_P2
2023/04/19 00:01:01;;;;;;;15.20;8.35;;;9.80;99.90;;;;;;4789140;30;20690;-77
2023/04/19 00:03:29;;;;;;;12.45;8.05;;;9.80;99.90;;;;;;4772964;30;20193;-77
2023/04/19 00:05:58;;;;;;;11.88;8.13;;;9.80;99.90;;;;;;4783109;29;20196;-78
2023/04/19 00:08:25;;;;;;;17.48;9.23;;;9.80;99.90;;;;;;4786427;30;20193;-78
2023/04/19 00:10:50;;;;;;;15.45;8.57;;;9.70;99.90;;;;;;4788995;30;20299;-81
2023/04/19 00:13:16;;;;;;;13.60;8.45;;;9.80;99.90;;;;;;4789772;30;20765;-78
2023/04/19 00:15:42;;;;;;;14.25;8.63;;;9.80;99.90;;;;;;4773519;30;20543;-76
2023/04/19 00:18:08;;;;;;;12.38;8.23;;;9.70;99.90;;;;;;4768172;30;20231;-77
2023/04/19 00:20:33;;;;;;;15.70;9.10;;;9.70;99.90;;;;;;4760163;30;20205;-77
2023/04/19 00:22:59;;;;;;;13.05;9.02;;;9.70;99.90;;;;;;4784418;30;20422;-77
2023/04/19 00:25:25;;;;;;;12.38;8.70;;;9.70;99.90;;;;;;4784636;30;20195;-77
2023/04/19 00:27:51;;;;;;;16.17;8.68;;;9.70;99.90;;;;;;4757746;30;20212;-77
2023/04/19 00:30:16;;;;;;;15.52;8.73;;;9.70;99.90;;;;;;4759347;30;20657;-77
2023/04/19 00:32:42;;;;;;;13.38;8.93;;;9.70;99.90;;;;;;4789500;30;20196;-77
2023/04/19 00:35:08;;;;;;;12.70;8.77;;;9.60;99.90;;;;;;4774727;30;20569;-77
2023/04/19 00:37:34;;;;;;;15.43;9.38;;;9.60;99.90;;;;;;4774121;29;20197;-76
2023/04/19 00:40:00;;;;;;;15.35;9.13;;;9.70;99.90;;;;;;4762801;30;20652;-83
2023/04/19 00:42:26;;;;;;;15.30;9.43;;;9.60;99.90;;;;;;4762213;30;20251;-77
2023/04/19 00:44:51;;;;;;;13.48;9.57;;;9.70;99.90;;;;;;4785427;30;20224;-77
2023/04/19 00:47:17;;;;;;;15.73;10.40;;;9.60;99.90;;;;;;4789448;30;20228;-77
2023/04/19 00:49:44;;;;;;;15.15;9.27;;;9.60;99.90;;;;;;4768001;30;20198;-79
2023/04/19 00:52:11;;;;;;;17.10;9.65;;;9.60;99.90;;;;;;4778612;30;20251;-77
2023/04/19 00:54:39;;;;;;;17.23;10.68;;;9.60;99.90;;;;;;4756706;30;20182;-77
2023/04/19 00:57:05;;;;;;;16.58;9.98;;;9.50;99.90;;;;;;4761306;29;20207;-78
2023/04/19 00:59:33;;;;;;;15.82;9.70;;;9.50;99.90;;;;;;4769123;30;20533;-77
2023/04/19 01:01:59;;;;;;;14.38;9.70;;;9.50;99.90;;;;;;4758845;30;20223;-77
2023/04/19 01:04:28;;;;;;;15.23;10.05;;;9.50;99.90;;;;;;4774281;30;20220;-77
2023/04/19 01:06:54;;;;;;;13.60;10.52;;;9.50;99.90;;;;;;4775487;29;20307;-82
2023/04/19 01:09:20;;;;;;;21.08;10.38;;;9.50;99.90;;;;;;4755149;29;20661;-78
2023/04/19 01:11:45;;;;;;;14.30;9.65;;;9.50;99.90;;;;;;4781283;29;20321;-83
2023/04/19 01:14:12;;;;;;;17.45;10.00;;;9.50;99.90;;;;;;4784778;29;20204;-77
2023/04/19 01:16:38;;;;;;;17.15;11.07;;;9.50;99.90;;;;;;4758447;29;20195;-77
2023/04/19 01:19:04;;;;;;;15.32;10.65;;;9.50;99.90;;;;;;4768681;30;20213;-79
2023/04/19 01:21:31;;;;;;;19.80;10.82;;;9.40;99.90;;;;;;4769393;30;20228;-77
2023/04/19 01:23:57;;;;;;;17.60;11.48;;;9.40;99.90;;;;;;4771239;30;20240;-81
2023/04/19 01:26:23;;;;;;;18.40;10.50;;;9.30;99.90;;;;;;4761997;30;20234;-77
2023/04/19 01:28:49;;;;;;;17.30;11.25;;;9.40;99.90;;;;;;4764559;30;20196;-77
2023/04/19 01:31:15;;;;;;;16.95;11.20;;;9.30;99.90;;;;;;4755385;30;20607;-77
2023/04/19 01:33:41;;;;;;;17.38;11.73;;;9.30;99.90;;;;;;4755776;30;20189;-77
2023/04/19 01:36:08;;;;;;;16.35;11.05;;;9.20;99.90;;;;;;4786041;30;20302;-77
2023/04/19 01:38:34;;;;;;;19.13;11.32;;;9.20;99.90;;;;;;4773461;30;20287;-77
2023/04/19 01:41:00;;;;;;;18.35;11.20;;;9.20;99.90;;;;;;4772923;30;20730;-77
2023/04/19 01:43:26;;;;;;;17.33;11.80;;;9.20;99.90;;;;;;4756120;30;20225;-77
2023/04/19 01:45:52;;;;;;;16.67;11.50;;;9.10;99.90;;;;;;4780260;29;20552;-78
2023/04/19 01:48:18;;;;;;;17.40;11.57;;;9.10;99.90;;;;;;4770242;30;20280;-77
2023/04/19 01:50:44;;;;;;;17.73;11.80;;;9.10;99.90;;;;;;4758471;30;20788;-77
2023/04/19 01:53:10;;;;;;;19.38;11.93;;;9.10;99.90;;;;;;4772250;30;20200;-77
2023/04/19 01:55:35;;;;;;;19.67;11.63;;;9.00;99.90;;;;;;4787831;29;20276;-78
2023/04/19 01:58:01;;;;;;;15.85;11.02;;;9.00;99.90;;;;;;4767093;30;20188;-76
2023/04/19 02:00:28;;;;;;;18.48;11.02;;;8.90;99.90;;;;;;4772514;30;20193;-76
2023/04/19 02:02:53;;;;;;;16.67;10.25;;;8.90;99.90;;;;;;4772825;30;20601;-75
2023/04/19 02:05:20;;;;;;;15.93;9.95;;;9.00;99.90;;;;;;4773311;30;20219;-78
2023/04/19 02:07:46;;;;;;;15.77;10.70;;;8.90;99.90;;;;;;4788438;30;20216;-76
2023/04/19 02:10:12;;;;;;;14.70;10.15;;;8.90;99.90;;;;;;4787990;30;20200;-76
2023/04/19 02:12:40;;;;;;;15.25;10.00;;;8.90;99.90;;;;;;4787951;29;20237;-76
2023/04/19 02:15:06;;;;;;;18.52;9.90;;;8.90;99.90;;;;;;4772401;30;20196;-76
2023/04/19 02:17:35;;;;;;;14.48;9.38;;;8.90;99.90;;;;;;4746031;29;20292;-77
2023/04/19 02:20:01;;;;;;;16.50;9.48;;;8.80;99.90;;;;;;4781294;29;20737;-77
2023/04/19 02:22:27;;;;;;;14.95;9.05;;;8.80;99.90;;;;;;4757039;30;20231;-76
2023/04/19 02:24:52;;;;;;;13.93;8.65;;;8.80;99.90;;;;;;4771968;30;20197;-76
2023/04/19 02:27:18;;;;;;;12.75;8.05;;;8.80;99.90;;;;;;4779805;29;20725;-81
2023/04/19 02:29:44;;;;;;;12.68;8.20;;;8.80;99.90;;;;;;4768332;30;20231;-76
2023/04/19 02:32:13;;;;;;;13.13;7.97;;;8.70;99.90;;;;;;4772022;30;20212;-77
2023/04/19 02:34:39;;;;;;;11.65;7.60;;;8.70;99.90;;;;;;4787700;30;20212;-76
2023/04/19 02:37:05;;;;;;;13.02;8.15;;;8.70;99.90;;;;;;4771649;30;20659;-77
2023/04/19 02:39:30;;;;;;;12.05;8.13;;;8.60;99.90;;;;;;4778969;29;20209;-76
2023/04/19 02:41:56;;;;;;;13.68;8.07;;;8.60;99.90;;;;;;4757125;30;20224;-76
2023/04/19 02:44:22;;;;;;;12.65;8.05;;;8.60;99.90;;;;;;4772367;30;20239;-76
2023/04/19 02:46:51;;;;;;;11.95;7.97;;;8.50;99.90;;;;;;4787713;30;20260;-76
2023/04/19 02:49:18;;;;;;;15.10;7.95;;;8.50;99.90;;;;;;4771894;30;20697;-77
2023/04/19 02:51:44;;;;;;;13.25;8.27;;;8.50;99.90;;;;;;4768517;30;20577;-77
2023/04/19 02:54:12;;;;;;;14.48;9.15;;;8.50;99.90;;;;;;4755642;30;20189;-77
2023/04/19 02:56:39;;;;;;;13.95;8.95;;;8.50;99.90;;;;;;4763964;30;20665;-78
2023/04/19 02:59:05;;;;;;;13.15;7.93;;;8.40;99.90;;;;;;4769472;30;20193;-77
2023/04/19 03:01:32;;;;;;;12.52;8.02;;;8.40;99.90;;;;;;4764722;30;20221;-77
2023/04/19 03:04:00;;;;;;;11.40;7.78;;;8.40;99.90;;;;;;4771954;30;20589;-77
2023/04/19 03:06:26;;;;;;;11.45;7.97;;;8.30;99.90;;;;;;4768331;30;20228;-76
2023/04/19 03:08:52;;;;;;;11.68;7.68;;;8.30;99.90;;;;;;4771888;30;20558;-77
2023/04/19 03:11:18;;;;;;;11.13;7.47;;;8.30;99.90;;;;;;4755685;30;20560;-78
2023/04/19 03:13:45;;;;;;;10.65;7.20;;;8.30;99.90;;;;;;4756309;30;20246;-77
2023/04/19 03:16:12;;;;;;;16.95;7.75;;;8.30;99.90;;;;;;4768603;30;20239;-78
2023/04/19 03:18:39;;;;;;;10.13;7.03;;;8.20;99.90;;;;;;4748643;30;20188;-76
2023/04/19 03:21:08;;;;;;;10.18;7.05;;;8.20;99.90;;;;;;4769445;30;20232;-76
2023/04/19 03:23:43;;;;;;;12.82;7.10;;;8.20;99.90;;;;;;4775920;30;20193;-75
2023/04/19 03:26:09;;;;;;;10.60;7.30;;;8.20;99.90;;;;;;4771604;30;20295;-77
2023/04/19 03:28:43;;;;;;;12.70;7.18;;;8.20;99.90;;;;;;4768224;30;20192;-76
2023/04/19 03:31:18;;;;;;;13.43;6.45;;;8.20;99.90;;;;;;4771717;30;20196;-77
2023/04/19 03:33:47;;;;;;;9.30;6.70;;;8.20;99.90;;;;;;4757795;30;20189;-75
2023/04/19 03:36:13;;;;;;;12.27;7.07;;;8.20;99.90;;;;;;4770011;30;20657;-75
2023/04/19 03:38:43;;;;;;;13.70;7.07;;;8.20;99.90;;;;;;4757653;30;20189;-82
2023/04/19 03:41:23;;;;;;;10.13;6.85;;;8.10;99.90;;;;;;4764581;30;20286;-79
2023/04/19 03:43:57;;;;;;;12.23;7.30;;;8.10;99.90;;;;;;4771387;30;20386;-78
2023/04/19 03:46:24;;;;;;;12.38;6.95;;;8.10;99.90;;;;;;4771003;30;20560;-76
2023/04/19 03:48:51;;;;;;;13.65;6.72;;;8.10;99.90;;;;;;4783694;29;20416;-81
2023/04/19 03:51:18;;;;;;;9.15;6.43;;;8.00;99.90;;;;;;4752197;30;20280;-78
2023/04/19 03:53:44;;;;;;;10.90;6.70;;;8.00;99.90;;;;;;4755402;30;20334;-76
2023/04/19 03:56:09;;;;;;;10.18;6.25;;;8.00;99.90;;;;;;4771066;30;20254;-76
2023/04/19 03:58:36;;;;;;;10.50;6.88;;;7.90;99.90;;;;;;4767381;29;20723;-79
2023/04/19 04:01:07;;;;;;;10.45;6.40;;;7.90;99.90;;;;;;4772793;30;20269;-76
2023/04/19 04:03:34;;;;;;;9.27;6.68;;;7.90;99.90;;;;;;4771361;30;20639;-76
2023/04/19 04:06:02;;;;;;;11.18;6.68;;;7.90;99.90;;;;;;4756449;30;20188;-77
2023/04/19 04:08:28;;;;;;;10.15;6.38;;;7.90;99.90;;;;;;4755044;29;20181;-78
2023/04/19 04:10:54;;;;;;;9.88;6.28;;;7.90;99.90;;;;;;4741445;30;20189;-78
2023/04/19 04:13:20;;;;;;;10.93;6.88;;;7.80;99.90;;;;;;4770536;30;20245;-77
2023/04/19 04:15:54;;;;;;;14.40;6.60;;;7.80;99.90;;;;;;4770522;30;20617;-79
2023/04/19 04:18:19;;;;;;;10.55;6.80;;;7.80;99.90;;;;;;4787654;30;20189;-77
2023/04/19 04:20:45;;;;;;;11.98;7.30;;;7.70;99.90;;;;;;4759311;29;20718;-77
2023/04/19 04:23:11;;;;;;;15.43;7.45;;;7.70;99.90;;;;;;4776256;29;20213;-77
2023/04/19 04:25:42;;;;;;;12.02;7.32;;;7.70;99.90;;;;;;4747333;30;20204;-78
2023/04/19 04:28:11;;;;;;;12.38;6.75;;;7.60;99.90;;;;;;4759340;29;20611;-78
2023/04/19 04:30:39;;;;;;;13.02;7.20;;;7.60;99.90;;;;;;4755520;29;20189;-81
2023/04/19 04:33:07;;;;;;;11.55;7.40;;;7.60;99.90;;;;;;4752034;30;20193;-77
2023/04/19 04:35:34;;;;;;;12.98;7.93;;;7.60;99.90;;;;;;4743428;30;20197;-76
2023/04/19 04:38:09;;;;;;;12.55;6.90;;;7.50;99.90;;;;;;4757677;30;20659;-77
2023/04/19 04:40:37;;;;;;;9.98;7.00;;;7.50;99.90;;;;;;4773748;30;20258;-76
2023/04/19 04:43:04;;;;;;;13.57;7.05;;;7.50;99.90;;;;;;4773975;30;20639;-77
2023/04/19 04:45:32;;;;;;;9.07;6.32;;;7.50;99.90;;;;;;4776162;30;20230;-76
2023/04/19 04:47:58;;;;;;;10.32;6.32;;;7.50;99.90;;;;;;4771301;30;20185;-77
2023/04/19 04:50:26;;;;;;;9.32;6.38;;;7.50;99.90;;;;;;4764363;30;20195;-77
2023/04/19 04:52:52;;;;;;;10.85;6.70;;;7.40;99.90;;;;;;4765021;30;20196;-77
2023/04/19 04:55:25;;;;;;;11.55;6.03;;;7.40;99.90;;;;;;4774208;30;20661;-78
2023/04/19 04:57:52;;;;;;;10.25;5.97;;;7.40;99.90;;;;;;4768251;29;20185;-81
2023/04/19 05:00:31;;;;;;;9.18;6.00;;;7.40;99.90;;;;;;4758515;30;20196;-76
2023/04/19 05:03:01;;;;;;;9.25;6.28;;;7.40;99.90;;;;;;4771279;30;20189;-78
2023/04/19 05:05:29;;;;;;;11.65;5.90;;;7.40;99.90;;;;;;4772293;30;20260;-78
2023/04/19 05:07:55;;;;;;;6.28;5.15;;;7.40;99.90;;;;;;4769168;30;20177;-79
2023/04/19 05:10:20;;;;;;;14.25;5.55;;;7.40;99.90;;;;;;4773947;30;20559;-79
2023/04/19 05:12:47;;;;;;;8.13;5.03;;;7.40;99.90;;;;;;4773788;30;20247;-78
2023/04/19 05:15:13;;;;;;;10.50;5.32;;;7.40;99.90;;;;;;4758993;30;20279;-78
2023/04/19 05:17:44;;;;;;;9.88;5.25;;;7.40;99.90;;;;;;4770375;29;20678;-79
2023/04/19 05:20:11;;;;;;;10.23;4.85;;;7.40;99.90;;;;;;4769635;30;20611;-79
2023/04/19 05:22:37;;;;;;;10.00;5.50;;;7.50;99.90;;;;;;4759075;30;20216;-78
2023/04/19 05:25:06;;;;;;;8.27;4.70;;;7.50;99.90;;;;;;4773589;30;20212;-80
2023/04/19 05:27:32;;;;;;;8.18;4.93;;;7.60;99.90;;;;;;4757548;30;20188;-82
2023/04/19 05:29:58;;;;;;;8.57;4.88;;;7.80;99.90;;;;;;4756451;30;20193;-78
2023/04/19 05:32:26;;;;;;;11.05;5.20;;;8.30;99.90;;;;;;4759811;30;20192;-77
2023/04/19 05:34:55;;;;;;;8.05;5.20;;;8.40;99.90;;;;;;4758658;30;20185;-77
2023/04/19 05:37:23;;;;;;;11.52;5.53;;;8.50;99.90;;;;;;4773369;30;20246;-81
2023/04/19 05:39:49;;;;;;;9.55;4.88;;;8.80;99.90;;;;;;4769622;29;20189;-79
2023/04/19 05:42:14;;;;;;;10.38;4.78;;;8.80;99.90;;;;;;4773319;30;20307;-79
2023/04/19 05:44:40;;;;;;;10.32;5.25;;;8.70;99.90;;;;;;4789190;30;20702;-79
2023/04/19 05:47:06;;;;;;;7.32;4.70;;;8.60;99.90;;;;;;4770128;30;20197;-78
2023/04/19 05:50:05;;;;;;;7.82;4.63;;;8.60;99.90;;;;;;4753890;29;20682;-78
2023/04/19 05:52:35;;;;;;;8.18;4.80;;;8.50;99.90;;;;;;4772922;30;20662;-78
2023/04/19 05:55:02;;;;;;;9.57;4.90;;;8.50;99.90;;;;;;4773319;30;20235;-79
2023/04/19 05:57:29;;;;;;;11.35;5.00;;;8.40;99.90;;;;;;4771753;30;20193;-77
2023/04/19 05:59:55;;;;;;;9.25;4.93;;;8.40;99.90;;;;;;4749126;29;20270;-79
2023/04/19 06:02:24;;;;;;;10.18;4.63;;;8.40;99.90;;;;;;4784863;30;20229;-78
2023/04/19 06:04:50;;;;;;;7.63;4.68;;;8.40;99.90;;;;;;4780780;30;20192;-79
2023/04/19 06:07:16;;;;;;;11.70;4.47;;;8.50;99.90;;;;;;4789553;30;20192;-77
2023/04/19 06:09:42;;;;;;;8.82;4.55;;;8.70;99.90;;;;;;4751845;29;20190;-78
2023/04/19 06:12:08;;;;;;;7.25;4.57;;;8.80;99.90;;;;;;4762479;30;20241;-78
2023/04/19 06:14:34;;;;;;;6.43;4.70;;;8.80;99.90;;;;;;4769864;30;20605;-78
2023/04/19 06:17:00;;;;;;;8.68;4.10;;;8.80;99.90;;;;;;4759148;30;20211;-78
2023/04/19 06:19:26;;;;;;;11.15;4.20;;;8.80;99.90;;;;;;4769587;29;20674;-78
2023/04/19 06:21:52;;;;;;;8.80;4.50;;;8.80;99.90;;;;;;4778936;29;20231;-79
2023/04/19 06:24:17;;;;;;;7.78;4.30;;;8.80;99.80;;;;;;4788840;30;20658;-80
2023/04/19 06:26:43;;;;;;;9.77;4.00;;;9.00;99.80;;;;;;4775148;29;20200;-78
2023/04/19 06:29:09;;;;;;;8.55;4.38;;;9.60;99.10;;;;;;4771603;29;20200;-79
2023/04/19 06:31:35;;;;;;;7.80;4.07;;;9.90;97.90;;;;;;4786244;29;20287;-83
2023/04/19 06:34:01;;;;;;;6.10;4.20;;;10.10;97.30;;;;;;4772859;30;20189;-79
2023/04/19 06:36:26;;;;;;;14.57;4.75;;;10.20;97.00;;;;;;4788909;30;20185;-78
2023/04/19 06:38:52;;;;;;;5.38;3.83;;;10.10;96.70;;;;;;4788939;30;20331;-79
2023/04/19 06:41:18;;;;;;;8.45;3.97;;;9.90;96.70;;;;;;4786586;29;20216;-78
2023/04/19 06:43:44;;;;;;;7.15;3.63;;;9.90;96.80;;;;;;4789066;29;20204;-78
2023/04/19 06:46:10;;;;;;;5.97;3.88;;;9.80;97.00;;;;;;4771690;29;20557;-78
2023/04/19 06:48:37;;;;;;;6.47;3.47;;;9.80;97.00;;;;;;4772286;30;20204;-86
2023/04/19 06:51:03;;;;;;;6.78;3.72;;;9.70;97.00;;;;;;4770662;29;20196;-79
2023/04/19 06:53:29;;;;;;;5.47;3.40;;;9.70;96.80;;;;;;4785737;29;20228;-79
2023/04/19 06:56:02;;;;;;;5.65;3.28;;;9.70;96.30;;;;;;4771190;29;20208;-78
2023/04/19 06:58:28;;;;;;;6.28;3.67;;;9.70;96.00;;;;;;4787387;30;20191;-79
2023/04/19 07:00:54;;;;;;;7.05;3.75;;;9.80;95.80;;;;;;4788317;29;20220;-78
2023/04/19 07:03:20;;;;;;;7.82;3.20;;;9.80;95.80;;;;;;4782155;29;20804;-84
2023/04/19 07:05:46;;;;;;;4.72;3.42;;;9.80;95.80;;;;;;4785231;29;20193;-80
2023/04/19 07:08:12;;;;;;;6.30;3.53;;;10.00;95.70;;;;;;4788214;30;20212;-78
2023/04/19 07:10:38;;;;;;;7.47;3.28;;;10.40;94.70;;;;;;4788207;30;20542;-78
2023/04/19 07:13:04;;;;;;;6.35;3.30;;;10.70;94.00;;;;;;4787857;30;20228;-78
2023/04/19 07:15:30;;;;;;;4.80;2.90;;;10.80;93.50;;;;;;4783654;29;20943;-77
2023/04/19 07:17:56;;;;;;;6.82;3.08;;;10.80;93.20;;;;;;4757303;30;20204;-78
2023/04/19 07:20:22;;;;;;;6.65;2.72;;;10.90;93.30;;;;;;4788473;30;20690;-78
2023/04/19 07:22:47;;;;;;;7.38;2.78;;;10.80;92.80;;;;;;4771939;30;20224;-77
2023/04/19 07:25:13;;;;;;;3.25;2.35;;;11.00;93.40;;;;;;4769470;29;20209;-80
2023/04/19 07:27:39;;;;;;;7.13;2.33;;;11.80;91.50;;;;;;4785915;29;20279;-79
2023/04/19 07:30:06;;;;;;;3.95;2.38;;;13.10;87.80;;;;;;4772248;30;20201;-78
2023/04/19 07:32:32;;;;;;;5.60;2.30;;;13.90;80.30;;;;;;4788625;30;20196;-78
2023/04/19 07:34:58;;;;;;;4.00;2.40;;;14.00;77.80;;;;;;4757493;29;20207;-80
2023/04/19 07:37:23;;;;;;;3.90;2.13;;;13.90;78.20;;;;;;4785625;29;20658;-80
2023/04/19 07:39:49;;;;;;;5.75;2.45;;;13.80;79.40;;;;;;4772058;30;20258;-80
2023/04/19 07:42:15;;;;;;;4.05;2.30;;;13.80;79.00;;;;;;4772036;30;21026;-80
2023/04/19 07:44:40;;;;;;;3.42;2.47;;;13.70;79.20;;;;;;4771741;30;20697;-79
2023/04/19 07:47:06;;;;;;;5.22;2.22;;;13.70;80.90;;;;;;4784005;29;20658;-80
2023/04/19 07:49:33;;;;;;;3.30;2.30;;;13.80;79.10;;;;;;4766305;30;20208;-83
2023/04/19 07:52:05;;;;;;;4.88;2.60;;;14.10;79.80;;;;;;4770313;30;20209;-80
2023/04/19 07:54:31;;;;;;;5.88;2.40;;;14.90;73.10;;;;;;4801998;29;20562;-85
2023/04/19 07:56:57;;;;;;;3.60;2.45;;;15.80;66.70;;;;;;4760499;29;20679;-85
2023/04/19 07:59:23;;;;;;;4.88;2.50;;;16.50;62.40;;;;;;4747735;30;20541;-79
2023/04/19 08:01:49;;;;;;;4.22;2.08;;;17.10;58.70;;;;;;4782592;29;20235;-80
2023/04/19 08:04:16;;;;;;;4.95;2.35;;;17.50;56.60;;;;;;4777483;29;20193;-79
2023/04/19 08:06:42;;;;;;;4.10;2.10;;;17.90;55.00;;;;;;4771924;30;20201;-78
2023/04/19 08:09:08;;;;;;;2.65;1.98;;;18.40;52.40;;;;;;4798276;29;20195;-78
2023/04/19 08:11:34;;;;;;;4.82;2.30;;;18.60;49.80;;;;;;4789366;29;20709;-79
2023/04/19 08:13:59;;;;;;;3.83;2.30;;;18.40;48.70;;;;;;4762970;29;20284;-80
2023/04/19 08:16:26;;;;;;;8.73;2.42;;;17.90;49.50;;;;;;4784146;29;20774;-78
2023/04/19 08:18:52;;;;;;;4.57;2.33;;;17.50;51.60;;;;;;4790291;30;20552;-77
2023/04/19 08:21:18;;;;;;;4.00;1.90;;;16.90;52.10;;;;;;4757356;30;20311;-78
2023/04/19 08:23:44;;;;;;;3.97;1.98;;;16.40;53.50;;;;;;4775382;29;20216;-80
2023/04/19 08:26:10;;;;;;;3.05;1.95;;;15.80;54.50;;;;;;4777292;29;20188;-80
2023/04/19 08:28:36;;;;;;;2.38;2.00;;;15.50;56.80;;;;;;4790163;30;20335;-79
2023/04/19 08:31:05;;;;;;;4.30;1.90;;;15.30;57.80;;;;;;4772285;30;20192;-80
2023/04/19 08:33:30;;;;;;;2.55;1.90;;;15.00;58.60;;;;;;4783414;29;20196;-80
2023/04/19 08:35:56;;;;;;;3.95;2.00;;;14.80;59.40;;;;;;4782098;29;20614;-79
2023/04/19 08:38:22;;;;;;;3.88;1.80;;;14.70;60.40;;;;;;4790732;30;20189;-78
2023/04/19 08:40:51;;;;;;;3.95;2.00;;;14.80;61.90;;;;;;4756174;30;20189;-84
2023/04/19 08:43:18;;;;;;;5.10;2.17;;;15.00;61.90;;;;;;4774008;30;20654;-79
2023/04/19 08:45:48;;;;;;;4.45;2.53;;;14.90;61.70;;;;;;4775735;29;20663;-85
2023/04/19 08:48:15;;;;;;;2.90;2.20;;;14.80;63.40;;;;;;4747605;29;20280;-86
2023/04/19 08:50:42;;;;;;;4.45;2.22;;;14.90;63.60;;;;;;4786234;29;20192;-78
2023/04/19 08:53:09;;;;;;;3.67;2.13;;;14.90;61.80;;;;;;4789416;30;20188;-78
2023/04/19 08:55:40;;;;;;;3.53;2.10;;;14.90;61.60;;;;;;4787495;29;20188;-81
2023/04/19 08:58:06;;;;;;;5.18;2.45;;;15.00;61.80;;;;;;4774180;30;20280;-79
2023/04/19 09:00:33;;;;;;;4.78;2.38;;;15.00;61.40;;;;;;4772491;30;20537;-79
2023/04/19 09:02:59;;;;;;;4.70;2.30;;;15.10;62.30;;;;;;4787695;30;20219;-79
2023/04/19 09:05:25;;;;;;;3.13;2.10;;;15.30;62.10;;;;;;4789185;29;20181;-78
2023/04/19 09:07:50;;;;;;;3.28;2.10;;;15.50;60.70;;;;;;4767597;30;20201;-78
2023/04/19 09:10:18;;;;;;;5.88;2.10;;;15.70;61.30;;;;;;4788453;29;20609;-79
2023/04/19 09:13:02;;;;;;;5.22;2.40;;;15.90;59.90;;;;;;4788704;29;20246;-78
2023/04/19 09:15:40;;;;;;;3.70;2.30;;;15.80;57.80;;;;;;4774127;30;20702;-78
2023/04/19 09:18:09;;;;;;;2.80;2.30;;;15.70;59.50;;;;;;4778630;29;20201;-78
2023/04/19 09:20:40;;;;;;;4.10;2.55;;;15.80;60.20;;;;;;4741157;30;20280;-79
2023/04/19 09:23:10;;;;;;;5.45;4.22;;;15.90;60.20;;;;;;4788443;30;20689;-79
2023/04/19 09:25:36;;;;;;;5.65;2.85;;;16.00;60.70;;;;;;4783278;30;20200;-79
2023/04/19 09:28:12;;;;;;;3.90;2.47;;;16.20;60.40;;;;;;4763697;30;20905;-81
2023/04/19 09:30:39;;;;;;;3.47;2.33;;;16.40;59.30;;;;;;4777124;29;20211;-80
2023/04/19 09:33:06;;;;;;;4.15;2.25;;;16.60;58.90;;;;;;4758123;30;20193;-78
2023/04/19 09:35:42;;;;;;;4.70;2.15;;;16.60;57.20;;;;;;4783430;30;20280;-82
2023/04/19 09:38:09;;;;;;;5.13;2.35;;;16.50;55.40;;;;;;4775485;29;20192;-83
2023/04/19 09:40:36;;;;;;;4.05;2.10;;;16.40;56.60;;;;;;4763667;30;20374;-79
2023/04/19 09:43:02;;;;;;;9.27;1.88;;;16.50;56.70;;;;;;4787162;30;20224;-78
2023/04/19 09:45:44;;;;;;;2.78;2.08;;;16.60;56.30;;;;;;4771186;30;20197;-78
2023/04/19 09:48:11;;;;;;;3.15;1.90;;;16.70;56.40;;;;;;4767930;29;21169;-83
2023/04/19 09:50:56;;;;;;;2.65;1.92;;;16.70;55.10;;;;;;4775860;29;20277;-78
2023/04/19 09:53:23;;;;;;;3.17;1.75;;;16.70;54.30;;;;;;4771008;30;20247;-78
2023/04/19 09:55:50;;;;;;;3.67;1.92;;;16.70;54.20;;;;;;4758289;30;20654;-84
2023/04/19 09:58:18;;;;;;;4.07;1.90;;;16.60;53.70;;;;;;4784396;29;20195;-78
2023/04/19 10:00:46;;;;;;;3.72;1.50;;;16.70;54.30;;;;;;4781855;30;20216;-79
2023/04/19 10:03:15;;;;;;;4.22;1.63;;;16.80;53.00;;;;;;4777898;30;20194;-79
2023/04/19 10:05:42;;;;;;;2.70;1.73;;;16.90;53.40;;;;;;4755019;30;20201;-79
2023/04/19 10:08:10;;;;;;;2.67;1.80;;;17.00;53.20;;;;;;4784884;30;20185;-78
2023/04/19 10:10:36;;;;;;;4.75;1.77;;;17.10;52.20;;;;;;4763358;29;20565;-81
2023/04/19 10:13:06;;;;;;;5.30;1.73;;;17.10;51.30;;;;;;4785273;29;20244;-78
2023/04/19 10:15:34;;;;;;;5.13;1.50;;;17.10;51.20;;;;;;4772790;30;20197;-79
2023/04/19 10:18:01;;;;;;;3.30;1.75;;;17.10;51.20;;;;;;4785115;30;20226;-79
2023/04/19 10:20:48;;;;;;;5.47;1.60;;;17.20;51.40;;;;;;4781759;29;20197;-79
2023/04/19 10:23:15;;;;;;;3.78;1.70;;;17.30;51.40;;;;;;4782391;29;20203;-79
2023/04/19 10:25:46;;;;;;;3.92;1.65;;;17.20;50.10;;;;;;4788192;30;20205;-79
2023/04/19 10:28:12;;;;;;;2.28;1.60;;;17.00;50.20;;;;;;4773150;30;20185;-78
2023/04/19 10:31:00;;;;;;;4.40;1.50;;;16.90;50.60;;;;;;4767859;30;20259;-80
2023/04/19 10:33:37;;;;;;;3.53;1.70;;;16.90;50.20;;;;;;4769286;29;20565;-80
2023/04/19 10:36:07;;;;;;;4.97;1.60;;;16.80;50.60;;;;;;4759329;30;20626;-78
2023/04/19 10:38:41;;;;;;;3.65;1.80;;;16.80;51.60;;;;;;4777935;30;20275;-79
2023/04/19 10:41:10;;;;;;;2.35;1.52;;;16.90;51.90;;;;;;4767111;29;20231;-80
2023/04/19 10:43:42;;;;;;;4.95;1.52;;;17.00;51.30;;;;;;4756115;30;20197;-80
2023/04/19 10:46:21;;;;;;;4.25;1.70;;;17.10;51.80;;;;;;4758495;30;20197;-81
2023/04/19 10:48:56;;;;;;;4.30;1.50;;;17.20;51.60;;;;;;4787128;30;20188;-79
2023/04/19 10:51:32;;;;;;;3.53;1.60;;;17.30;51.00;;;;;;4783584;29;20267;-81
2023/04/19 10:53:59;;;;;;;4.60;1.60;;;17.30;50.30;;;;;;4754428;30;20607;-86
2023/04/19 10:56:34;;;;;;;1.92;1.70;;;17.30;50.20;;;;;;4783896;29;20200;-80
2023/04/19 10:59:00;;;;;;;2.35;1.60;;;17.20;50.90;;;;;;4805917;29;20207;-80
2023/04/19 11:01:41;;;;;;;2.47;1.58;;;17.30;52.40;;;;;;4773002;29;20764;-81
2023/04/19 11:04:11;;;;;;;2.65;1.48;;;17.50;51.30;;;;;;4775119;29;20232;-81
2023/04/19 11:07:00;;;;;;;4.43;1.50;;;17.60;50.90;;;;;;4752399;30;20240;-80
2023/04/19 11:09:38;;;;;;;3.78;1.33;;;17.60;50.10;;;;;;4764710;30;20169;-81
2023/04/19 11:12:09;;;;;;;4.07;1.75;;;17.60;50.70;;;;;;4765065;30;20328;-80
2023/04/19 11:14:38;;;;;;;1.70;1.50;;;17.60;50.10;;;;;;4771134;29;21012;-81
2023/04/19 11:17:26;;;;;;;6.45;1.70;;;17.60;50.20;;;;;;4786439;30;20192;-80
2023/04/19 11:19:53;;;;;;;2.58;1.60;;;17.50;49.90;;;;;;4788160;30;20192;-81
2023/04/19 11:22:34;;;;;;;4.03;1.55;;;17.50;49.80;;;;;;4770936;30;20704;-80
2023/04/19 11:25:11;;;;;;;2.85;1.73;;;17.50;49.70;;;;;;4774408;29;20195;-81
2023/04/19 11:27:37;;;;;;;3.60;1.67;;;17.40;50.00;;;;;;4781795;30;20220;-81
2023/04/19 11:30:09;;;;;;;5.63;1.95;;;17.30;50.50;;;;;;4786630;30;20246;-80
2023/04/19 11:32:35;;;;;;;1.88;1.50;;;17.30;50.70;;;;;;4786133;29;20200;-81
2023/04/19 11:35:08;;;;;;;6.72;2.03;;;17.40;51.10;;;;;;4781167;29;20195;-81
2023/04/19 11:37:35;;;;;;;3.65;1.58;;;17.50;50.70;;;;;;4787893;30;20242;-80
2023/04/19 11:40:01;;;;;;;6.70;2.10;;;17.50;50.20;;;;;;4744490;30;20262;-80
2023/04/19 11:42:27;;;;;;;2.58;2.00;;;17.50;50.60;;;;;;4773891;30;20221;-80
2023/04/19 11:44:56;;;;;;;4.18;2.03;;;17.50;50.70;;;;;;4748244;29;22071;-79
2023/04/19 11:47:22;;;;;;;5.20;2.35;;;17.60;50.80;;;;;;4785757;29;20283;-79
2023/04/19 11:49:47;;;;;;;3.90;2.00;;;17.60;50.40;;;;;;4774201;30;20605;-80
2023/04/19 11:52:23;;;;;;;5.30;2.08;;;17.50;51.00;;;;;;4792561;30;20189;-79
2023/04/19 11:54:53;;;;;;;4.55;2.42;;;17.50;51.00;;;;;;4774757;29;20211;-82
2023/04/19 11:57:31;;;;;;;5.72;2.25;;;17.60;51.30;;;;;;4779923;29;20218;-80
2023/04/19 12:00:11;;;;;;;4.45;2.38;;;17.50;51.30;;;;;;4776057;30;20711;-80
2023/04/19 12:02:42;;;;;;;10.05;2.70;;;17.40;51.50;;;;;;4791639;30;20269;-81
2023/04/19 12:05:13;;;;;;;4.30;2.28;;;17.50;52.00;;;;;;4790412;29;20219;-80
2023/04/19 12:08:05;;;;;;;2.97;2.00;;;17.50;51.80;;;;;;4765310;30;20248;-79
2023/04/19 12:10:32;;;;;;;5.57;2.50;;;17.50;52.20;;;;;;4774109;30;20196;-80
2023/04/19 12:12:59;;;;;;;6.38;2.90;;;17.60;52.20;;;;;;4790257;29;20312;-81
2023/04/19 12:15:51;;;;;;;5.25;2.33;;;17.60;51.90;;;;;;4789905;29;20200;-81
2023/04/19 12:18:16;;;;;;;3.70;2.30;;;17.50;52.40;;;;;;4746090;30;20201;-80
2023/04/19 12:20:45;;;;;;;8.60;3.20;;;17.60;52.80;;;;;;4776732;30;20200;-80
2023/04/19 12:23:14;;;;;;;4.80;2.72;;;17.50;53.00;;;;;;4789133;30;20239;-80
2023/04/19 12:25:42;;;;;;;7.97;2.90;;;17.50;53.20;;;;;;4787355;30;20238;-81
2023/04/19 12:28:08;;;;;;;9.30;2.92;;;17.50;53.40;;;;;;4774935;29;20189;-82
2023/04/19 12:30:37;;;;;;;3.45;2.80;;;17.50;53.30;;;;;;4771970;30;20576;-80
2023/04/19 12:33:04;;;;;;;4.25;2.65;;;17.50;53.30;;;;;;4757218;30;20311;-81
2023/04/19 12:35:30;;;;;;;4.53;3.00;;;17.40;53.70;;;;;;4788240;30;20189;-80
2023/04/19 12:37:58;;;;;;;7.57;3.10;;;17.40;54.50;;;;;;4774918;29;20595;-83
2023/04/19 12:40:24;;;;;;;4.93;3.10;;;17.50;54.40;;;;;;4769350;29;20194;-81
2023/04/19 12:42:51;;;;;;;6.03;3.00;;;17.50;53.90;;;;;;4769807;30;20217;-81
2023/04/19 12:45:17;;;;;;;5.97;3.35;;;17.50;53.90;;;;;;4772146;30;20177;-81
2023/04/19 12:47:43;;;;;;;5.68;2.80;;;17.40;54.70;;;;;;4752441;30;20185;-80
2023/04/19 12:50:09;;;;;;;4.88;3.50;;;17.40;55.30;;;;;;4785652;30;20197;-79
2023/04/19 12:52:35;;;;;;;5.88;3.65;;;17.30;55.80;;;;;;4783816;30;20228;-79